Ponca, Arkansas
Current Conditions -  °F | °C
As of 9:55 PM on Wednesday 17 Dec 2014 (Local Time) from KHRO Reporting Station
Light Rain Light Rain  
Wind Chill: 26°   Ceiling: 3000
Heat Index: 33°   Visibility: 4mi
Dew Point: 33°   Wind: 8mph
Humidity: 100%   Direction: 110°ESE
Pressure: 30.22"   Gusts: NA
Location:  36.02°N, 93.37°W
Report Text: KHRO 180355Z AUTO 11007KT 4SM -RA BR FEW003 BKN030 OVC040 01/01 A3022 RMK AO2 P0000 T00060006
Loading
Personal Weather Stations






























Interactive Weather Map New forecast layout! Learn more

10-Day Weather Forecast

Advertisements
Track Severe Weather on mobile